createdAt,value
2019-04-13T00:03:53.554Z,100407.83
2019-04-13T00:06:38.622Z,100409.24
2019-04-13T00:09:23.387Z,100405.23
2019-04-13T00:15:18.470Z,100405.80
2019-04-13T00:18:10.015Z,100405.20
2019-04-13T00:20:53.006Z,100402.27
2019-04-13T00:23:29.956Z,100396.91
2019-04-13T00:26:15.664Z,100401.69
2019-04-13T00:29:02.293Z,100401.16
2019-04-13T00:31:45.929Z,100396.12
2019-04-13T00:34:23.405Z,100389.13
2019-04-13T00:37:19.930Z,100388.85
2019-04-13T00:40:12.392Z,100386.20
2019-04-13T00:43:19.290Z,100396.55
2019-04-13T00:46:01.206Z,100395.95
2019-04-13T00:48:50.549Z,100385.35
2019-04-13T00:54:31.335Z,100384.98
2019-04-13T00:57:11.516Z,100383.88
2019-04-13T00:59:58.734Z,100378.98
2019-04-13T01:02:52.130Z,100383.88
2019-04-13T01:08:42.636Z,100373.63
2019-04-13T01:11:24.777Z,100385.20
2019-04-13T01:14:06.428Z,100387.94
2019-04-13T01:16:44.477Z,100399.52
2019-04-13T01:19:25.999Z,100387.21
2019-04-13T01:22:09.243Z,100386.05
2019-04-13T01:24:50.402Z,100378.26
2019-04-13T01:27:41.804Z,100373.31
2019-04-13T01:30:18.936Z,100371.05
2019-04-13T01:33:01.987Z,100375.06
2019-04-13T01:35:43.452Z,100372.51
2019-04-13T01:38:38.801Z,100378.77
2019-04-13T01:41:37.595Z,100367.86
2019-04-13T01:44:31.540Z,100379.73
2019-04-13T01:47:17.603Z,100370.23
2019-04-13T01:50:00.164Z,100368.51
2019-04-13T01:52:49.752Z,100366.91
2019-04-13T01:55:40.025Z,100374.80
2019-04-13T01:58:30.844Z,100369.93
2019-04-13T02:01:31.401Z,100363.20
2019-04-13T02:04:41.464Z,100361.23
2019-04-13T02:07:30.250Z,100348.92
2019-04-13T02:10:31.407Z,100356.52
2019-04-13T02:13:13.786Z,100356.40
2019-04-13T02:16:06.323Z,100353.52
2019-04-13T02:18:43.923Z,100350.83
2019-04-13T02:21:22.701Z,100358.74
2019-04-13T02:24:03.913Z,100354.66
2019-04-13T02:26:42.546Z,100349.34
2019-04-13T02:29:25.379Z,100349.88
2019-04-13T02:32:04.928Z,100340.66
2019-04-13T02:35:05.743Z,100334.43
2019-04-13T02:37:57.737Z,100341.25
2019-04-13T02:40:45.201Z,100342.52
2019-04-13T02:43:23.521Z,100340.07
2019-04-13T02:46:04.517Z,100343.80
2019-04-13T02:51:46.084Z,100340.17
2019-04-13T02:54:42.208Z,100339.88
2019-04-13T02:57:18.699Z,100337.22
2019-04-13T03:00:03.936Z,100336.41
2019-04-13T03:02:47.619Z,100333.92
2019-04-13T03:05:32.857Z,100335.89
2019-04-13T03:08:12.347Z,100335.14
2019-04-13T03:11:04.973Z,100332.33
2019-04-13T03:13:47.711Z,100336.52
2019-04-13T03:16:38.236Z,100331.10
2019-04-13T03:19:44.261Z,100330.72
2019-04-13T03:22:23.752Z,100333.01
2019-04-13T03:25:05.561Z,100330.30
2019-04-13T03:27:52.708Z,100327.34
2019-04-13T03:30:42.715Z,100335.57
2019-04-13T03:33:29.150Z,100328.97
2019-04-13T03:36:28.413Z,100320.23
2019-04-13T03:39:14.340Z,100305.28
2019-04-13T03:42:03.939Z,100327.22
2019-04-13T03:44:45.518Z,100322.57
2019-04-13T03:47:28.363Z,100332.55
2019-04-13T03:50:29.763Z,100324.95
2019-04-13T03:53:35.029Z,100323.84
2019-04-13T03:56:23.556Z,100318.50
2019-04-13T03:59:18.631Z,100321.30
2019-04-13T04:01:50.930Z,100326.40
2019-04-13T04:04:42.882Z,100319.09
2019-04-13T04:07:35.651Z,100324.00
2019-04-13T04:10:18.447Z,100307.85
2019-04-13T04:13:04.584Z,100331.70
2019-04-13T04:15:39.395Z,100327.52
2019-04-13T04:18:14.695Z,100327.41
2019-04-13T04:21:06.636Z,100323.16
2019-04-13T04:23:51.268Z,100332.87
2019-04-13T04:26:27.436Z,100333.88
2019-04-13T04:29:22.620Z,100331.06
2019-04-13T04:32:11.790Z,100335.03
2019-04-13T04:34:54.917Z,100337.00
2019-04-13T04:37:28.248Z,100346.02
2019-04-13T04:40:09.390Z,100338.86
2019-04-13T04:42:49.994Z,100342.14
2019-04-13T04:45:31.491Z,100335.52
2019-04-13T04:48:28.944Z,100340.77
2019-04-13T04:51:11.572Z,100348.82
2019-04-13T04:53:51.162Z,100342.62
2019-04-13T04:56:43.726Z,100341.98
2019-04-13T04:59:58.436Z,100343.05
2019-04-13T05:02:36.502Z,100336.83
2019-04-13T05:05:32.250Z,100336.31
2019-04-13T05:08:16.444Z,100333.97
2019-04-13T05:10:55.697Z,100334.45
2019-04-13T05:13:49.364Z,100334.45
2019-04-13T05:16:51.079Z,100338.59
2019-04-13T05:19:32.595Z,100342.25
2019-04-13T05:22:26.059Z,100340.59
2019-04-13T05:25:00.131Z,100340.06
2019-04-13T05:27:51.025Z,100345.48
2019-04-13T05:30:26.259Z,100342.83
2019-04-13T05:33:10.564Z,100332.10
2019-04-13T05:36:19.298Z,100353.16
2019-04-13T05:39:24.236Z,100346.42
2019-04-13T05:42:09.936Z,100363.97
2019-04-13T05:45:04.835Z,100361.74
2019-04-13T05:47:58.651Z,100365.52
2019-04-13T05:50:53.857Z,100365.45
2019-04-13T05:53:35.524Z,100373.47
2019-04-13T05:56:18.974Z,100352.52
2019-04-13T05:59:05.786Z,100367.16
2019-04-13T06:02:07.367Z,100363.89
2019-04-13T06:05:01.847Z,100379.06
2019-04-13T06:08:06.632Z,100373.12
2019-04-13T06:10:59.417Z,100366.86
2019-04-13T06:14:25.732Z,100370.22
2019-04-13T06:17:22.136Z,100363.77
2019-04-13T06:20:10.368Z,100386.90
2019-04-13T06:22:58.411Z,100375.53
2019-04-13T06:28:53.929Z,100371.06
2019-04-13T06:32:01.701Z,100372.08
2019-04-13T06:35:09.256Z,100374.53
2019-04-13T06:37:48.456Z,100379.93
2019-04-13T06:40:51.301Z,100374.48
2019-04-13T06:43:31.019Z,100372.01
2019-04-13T06:46:16.892Z,100382.71
2019-04-13T06:49:19.699Z,100379.09
2019-04-13T06:52:19.787Z,100372.65
2019-04-13T06:55:16.064Z,100372.34
2019-04-13T06:58:13.150Z,100375.73
2019-04-13T07:01:04.840Z,100377.84
2019-04-13T07:03:56.969Z,100370.80
2019-04-13T07:06:56.632Z,100365.33
2019-04-13T07:09:52.203Z,100369.77
2019-04-13T07:13:02.051Z,100378.36
2019-04-13T07:15:47.217Z,100380.91
2019-04-13T07:18:28.956Z,100380.68
2019-04-13T07:21:20.770Z,100379.75
2019-04-13T07:23:57.917Z,100376.41
2019-04-13T07:30:35.415Z,100383.66
2019-04-13T07:33:17.897Z,100390.69
2019-04-13T07:36:18.285Z,100382.50
2019-04-13T07:39:29.206Z,100388.47
2019-04-13T07:42:12.956Z,100389.31
2019-04-13T07:45:40.182Z,100385.53
2019-04-13T07:49:05.223Z,100387.75
2019-04-13T07:52:23.314Z,100385.40
2019-04-13T07:55:01.773Z,100385.58
2019-04-13T07:57:44.751Z,100379.63
2019-04-13T08:00:30.466Z,100386.30
2019-04-13T08:03:07.663Z,100385.12
2019-04-13T08:05:43.931Z,100385.81
2019-04-13T08:08:24.879Z,100377.88
2019-04-13T08:11:22.727Z,100379.50
2019-04-13T08:14:24.261Z,100382.45
2019-04-13T08:17:15.393Z,100378.06
2019-04-13T08:20:09.378Z,100381.89
2019-04-13T08:23:08.400Z,100380.48
2019-04-13T08:25:49.474Z,100381.17
2019-04-13T08:28:39.702Z,100379.43
2019-04-13T08:31:15.387Z,100360.33
2019-04-13T08:34:04.284Z,100373.58
2019-04-13T08:36:45.033Z,100374.76
2019-04-13T08:39:26.773Z,100365.75
2019-04-13T08:42:18.736Z,100349.73
2019-04-13T08:44:46.997Z,100375.52
2019-04-13T08:47:33.308Z,100372.20
2019-04-13T08:50:18.415Z,100369.52
2019-04-13T08:53:08.794Z,100371.87
2019-04-13T08:55:53.136Z,100372.87
2019-04-13T08:58:36.523Z,100363.17
2019-04-13T09:01:16.136Z,100363.03
2019-04-13T09:03:54.248Z,100360.12
2019-04-13T09:09:41.071Z,100349.38
2019-04-13T09:12:25.041Z,100351.75
2019-04-13T09:15:06.261Z,100351.75
2019-04-13T09:21:23.224Z,100341.47
2019-04-13T09:24:03.108Z,100349.95
2019-04-13T09:26:41.431Z,100336.61
2019-04-13T09:29:26.392Z,100347.36
2019-04-13T09:32:10.070Z,100345.48
2019-04-13T09:34:53.426Z,100349.05
2019-04-13T09:37:37.575Z,100340.56
2019-04-13T09:40:36.071Z,100333.89
2019-04-13T09:43:39.864Z,100327.53
2019-04-13T09:46:23.204Z,100327.34
2019-04-13T09:49:06.418Z,100330.36
2019-04-13T09:51:47.489Z,100315.06
2019-04-13T09:54:27.322Z,100301.95
2019-04-13T09:57:10.596Z,100310.58
2019-04-13T10:00:05.241Z,100309.22
2019-04-13T10:05:45.284Z,100308.64
2019-04-13T10:08:26.860Z,100303.08
2019-04-13T10:11:06.755Z,100300.99
2019-04-13T10:14:07.013Z,100302.12
2019-04-13T10:17:06.733Z,100306.47
2019-04-13T10:19:59.937Z,100297.89
2019-04-13T10:22:42.485Z,100303.61
2019-04-13T10:25:38.134Z,100301.16
2019-04-13T10:28:26.386Z,100296.47
2019-04-13T10:31:09.656Z,100287.97
2019-04-13T10:33:51.531Z,100294.03
2019-04-13T10:36:34.629Z,100287.42
2019-04-13T10:39:22.024Z,100289.93
2019-04-13T10:42:25.094Z,100293.50
2019-04-13T10:48:35.664Z,100283.19
2019-04-13T10:51:47.285Z,100288.86
2019-04-13T10:54:27.295Z,100290.42
2019-04-13T10:57:07.342Z,100275.14
2019-04-13T11:00:06.524Z,100277.28
2019-04-13T11:05:48.020Z,100261.91
2019-04-13T11:08:51.437Z,100259.22
2019-04-13T11:21:26.035Z,100262.95
2019-04-13T11:24:55.958Z,100259.29
2019-04-13T11:34:30.977Z,100261.57
2019-04-13T11:44:21.217Z,100231.62
2019-04-13T11:47:30.818Z,100251.44
2019-04-13T11:53:56.315Z,100241.23
2019-04-13T12:00:58.520Z,100238.85
2019-04-13T12:03:59.047Z,100241.28
2019-04-13T12:09:51.125Z,100237.63
2019-04-13T12:13:02.598Z,100236.53
2019-04-13T12:16:36.441Z,100237.66
2019-04-13T12:22:30.280Z,100222.16
2019-04-13T12:25:45.620Z,100228.30
2019-04-13T12:28:48.730Z,100224.77
2019-04-13T12:38:09.457Z,100219.28
2019-04-13T12:41:06.498Z,100219.55
2019-04-13T12:43:48.365Z,100217.98
2019-04-13T12:52:55.915Z,100213.94
2019-04-13T12:56:33.084Z,100208.29
2019-04-13T12:59:15.008Z,100207.52
2019-04-13T13:02:49.330Z,100210.87
2019-04-13T13:05:41.279Z,100221.61
2019-04-13T13:08:53.424Z,100214.98
2019-04-13T13:11:56.933Z,100217.63
2019-04-13T13:18:08.723Z,100213.97
2019-04-13T13:24:30.878Z,100209.20
2019-04-13T13:27:27.390Z,100222.23
2019-04-13T13:30:29.237Z,100214.05
2019-04-13T13:40:30.448Z,100208.19
2019-04-13T13:50:06.546Z,100210.73
2019-04-13T13:53:10.617Z,100205.95
2019-04-13T13:56:08.933Z,100200.72
2019-04-13T14:05:34.939Z,100204.94
2019-04-13T14:08:44.294Z,100192.86
2019-04-13T14:11:50.624Z,100192.38
2019-04-13T14:14:59.848Z,100190.86
2019-04-13T14:17:31.608Z,100190.14
2019-04-13T14:20:14.575Z,100184.94
2019-04-13T14:26:20.194Z,100189.08
2019-04-13T14:29:10.753Z,100176.59
2019-04-13T14:32:40.328Z,100177.71
2019-04-13T14:47:45.033Z,100179.78
2019-04-13T14:53:52.227Z,100178.08
2019-04-13T14:56:55.751Z,100159.19
2019-04-13T15:06:13.522Z,100175.63
2019-04-13T15:09:06.201Z,100177.64
2019-04-13T15:18:23.835Z,100167.53
2019-04-13T15:24:32.760Z,100177.55
2019-04-13T15:27:38.744Z,100178.99
2019-04-13T15:31:01.562Z,100175.50
2019-04-13T15:47:19.194Z,100171.01
2019-04-13T15:50:01.727Z,100170.91
2019-04-13T15:53:09.786Z,100180.86
2019-04-13T15:56:13.072Z,100177.84
2019-04-13T15:59:28.773Z,100179.69
2019-04-13T16:09:07.767Z,100191.75
2019-04-13T16:12:13.232Z,100180.47
2019-04-13T16:14:53.324Z,100181.84
2019-04-13T16:17:56.319Z,100182.38
2019-04-13T16:21:08.535Z,100183.09
2019-04-13T16:24:05.463Z,100181.61
2019-04-13T16:33:08.675Z,100186.47
2019-04-13T16:39:23.091Z,100184.52
2019-04-13T16:42:27.823Z,100189.09
2019-04-13T16:45:38.439Z,100190.30
2019-04-13T16:48:34.113Z,100190.72
2019-04-13T16:51:46.307Z,100187.81
2019-04-13T16:58:25.796Z,100181.81
2019-04-13T17:01:18.972Z,100179.11
2019-04-13T17:04:38.009Z,100180.03
2019-04-13T17:07:23.989Z,100186.30
2019-04-13T17:10:36.403Z,100180.98
2019-04-13T17:22:54.936Z,100183.36
2019-04-13T17:31:57.782Z,100189.26
2019-04-13T17:45:00.629Z,100190.64
2019-04-13T17:51:33.078Z,100204.39
2019-04-13T17:54:28.819Z,100186.30
2019-04-13T17:57:56.523Z,100209.42
2019-04-13T18:00:50.266Z,100212.72
2019-04-13T18:07:21.558Z,100210.16
2019-04-13T18:17:22.591Z,100229.18
2019-04-13T18:29:55.159Z,100235.38
2019-04-13T18:35:49.068Z,100241.40
2019-04-13T18:38:43.979Z,100245.34
2019-04-13T18:42:10.338Z,100246.09
2019-04-13T18:45:09.316Z,100259.27
2019-04-13T19:04:23.642Z,100257.29
2019-04-13T19:07:32.287Z,100259.33
2019-04-13T19:10:48.819Z,100269.70
2019-04-13T19:33:08.548Z,100269.35
2019-04-13T19:42:28.799Z,100271.59
2019-04-13T19:45:31.562Z,100273.53
2019-04-13T19:52:05.546Z,100263.61
2019-04-13T19:55:12.969Z,100257.25
2019-04-13T20:10:55.018Z,100253.18
2019-04-13T20:20:49.808Z,100261.88
2019-04-13T20:24:25.776Z,100259.83
2019-04-13T20:27:15.121Z,100262.79
2019-04-13T20:30:19.471Z,100262.81
2019-04-13T20:33:41.837Z,100264.34
2019-04-13T20:37:05.761Z,100277.23
2019-04-13T20:40:05.838Z,100273.22
2019-04-13T20:43:16.467Z,100273.22
2019-04-13T20:49:17.171Z,100263.53
2019-04-13T20:52:50.811Z,100268.63
2019-04-13T20:58:23.150Z,100269.16
2019-04-13T21:00:57.381Z,100263.05
2019-04-13T21:13:42.585Z,100269.97
2019-04-13T21:16:53.933Z,100269.16
2019-04-13T21:19:41.853Z,100276.84
2019-04-13T21:32:22.434Z,100277.95
2019-04-13T21:38:30.414Z,100276.50
2019-04-13T21:44:51.512Z,100277.31
2019-04-13T21:47:40.975Z,100277.31
2019-04-13T21:50:47.959Z,100277.95
2019-04-13T21:53:57.429Z,100282.16
2019-04-13T21:56:32.388Z,100272.84
2019-04-13T21:59:15.156Z,100272.84
2019-04-13T22:02:37.635Z,100278.55
2019-04-13T22:15:22.157Z,100277.39
2019-04-13T22:21:17.663Z,100262.23
2019-04-13T22:24:20.313Z,100265.83
2019-04-13T22:27:48.342Z,100257.39
2019-04-13T22:40:11.263Z,100248.05
2019-04-13T22:52:53.710Z,100261.82
2019-04-13T22:56:05.099Z,100252.18
2019-04-13T23:01:55.241Z,100254.63
2019-04-13T23:08:12.219Z,100243.92
2019-04-13T23:20:17.017Z,100229.73
2019-04-13T23:26:32.376Z,100229.16
2019-04-13T23:44:42.055Z,100203.66
2019-04-13T23:48:22.025Z,100203.66
2019-04-13T23:51:25.265Z,100204.09
2019-04-13T23:53:58.007Z,100197.61
